Pahoa, HI (96778)

10:04 PM HST on July 27, 2016 (GMT -1000)
Hawaiian Shores Rec. (Malolo St.) | | Change Station

Elev 217 ft 19.54 °N, 154.90 °W | Updated 3 seconds ago

Scattered Clouds
Scattered Clouds
75.7 °F
Feels Like 75 °F
N
0.0
Wind Variable Wind from SW
Gusts 0.0 mph

Today
High -- | Low -- °F
--% Chance of Precip.
Yesterday
High -- | Low -- °F
Precip. -- in
Pressure 30.06 in
Visibility 10.0 miles
Clouds Few 4600 ft
Scattered Clouds 6000 ft
Heat Index 75 °F
Dew Point 74 °F
Humidity 94%
Rainfall 0.04 in
Snow Depth Not available.
5:54 AM 6:57 PM
Waning Crescent, 34% visible
METAR PHTO 280753Z 25004KT 10SM FEW046 SCT060 24/22 A3007 RMK AO2 RAE11 SLP180 P0005 T02440222
Pressure 30.06 in
Visibility 10.0 miles
Clouds Few 4600 ft
Scattered Clouds 6000 ft
Heat Index 75 °F
Dew Point 74 °F
Humidity 94%
Rainfall 0.04 in
Snow Depth Not available.
5:54 AM 6:57 PM
Waning Crescent, 34% visible
METAR PHTO 280753Z 25004KT 10SM FEW046 SCT060 24/22 A3007 RMK AO2 RAE11 SLP180 P0005 T02440222

10-Day Weather Forecast

Almanac

Astronomy

Jul. 27, 2016 Rise Set
Actual Time
Civil Twilight
Nautical Twilight
Astronomical Twilight
Moon
Length of Visible Light
Length of Day
Tomorrow will be .
, % of the Moon is Illuminated

Today's Extremes

State Highs State Lows

Community

WunderPhotos

Upload Photos

1,928,070 photos uploaded!

WunderBlog® & News

Nearby

Air Quality

  Air Quality AQ Index Pollutant
Not available.

Snow Depth

Station Depth Elevation

Earthquake Activity

City Distance Mag. Time & Date
Minimum magnitude displayed is 2.5.

Coastal Water Temperatures

Place Temperature

Stations

Nearby Weather Stations

Station Location Temp. Windchill Dew Point Humidity Wind Precip. Elev Updated Type
                   

Watches & Warnings

There are currently no watches in effect.